sensor_id;sensor_type;location;lat;lon;timestamp;P1;durP1;ratioP1;P2;durP2;ratioP2
6269;SDS011;3168;51.684;6.954;2023-04-25T00:02:19;2.53;;;2.33;;
6269;SDS011;3168;51.684;6.954;2023-04-25T00:04:45;2.33;;;2.13;;
6269;SDS011;3168;51.684;6.954;2023-04-25T00:07:10;2.03;;;1.90;;
6269;SDS011;3168;51.684;6.954;2023-04-25T00:09:36;3.92;;;2.30;;
6269;SDS011;3168;51.684;6.954;2023-04-25T00:12:02;8.80;;;1.77;;
6269;SDS011;3168;51.684;6.954;2023-04-25T00:14:29;5.43;;;2.07;;
6269;SDS011;3168;51.684;6.954;2023-04-25T00:16:54;2.73;;;2.53;;
6269;SDS011;3168;51.684;6.954;2023-04-25T00:19:20;6.70;;;3.70;;
6269;SDS011;3168;51.684;6.954;2023-04-25T00:21:46;3.77;;;2.90;;
6269;SDS011;3168;51.684;6.954;2023-04-25T00:24:12;9.60;;;2.50;;
6269;SDS011;3168;51.684;6.954;2023-04-25T00:26:37;2.30;;;2.20;;
6269;SDS011;3168;51.684;6.954;2023-04-25T00:29:03;5.50;;;2.33;;
6269;SDS011;3168;51.684;6.954;2023-04-25T00:31:30;10.73;;;3.27;;
6269;SDS011;3168;51.684;6.954;2023-04-25T00:33:56;2.13;;;1.90;;
6269;SDS011;3168;51.684;6.954;2023-04-25T00:36:21;4.10;;;2.37;;
6269;SDS011;3168;51.684;6.954;2023-04-25T00:38:47;2.47;;;1.60;;
6269;SDS011;3168;51.684;6.954;2023-04-25T00:41:13;2.57;;;2.47;;
6269;SDS011;3168;51.684;6.954;2023-04-25T00:43:39;6.13;;;3.03;;
6269;SDS011;3168;51.684;6.954;2023-04-25T00:46:06;1.90;;;1.80;;
6269;SDS011;3168;51.684;6.954;2023-04-25T00:48:31;12.03;;;2.70;;
6269;SDS011;3168;51.684;6.954;2023-04-25T00:50:58;8.00;;;2.00;;
6269;SDS011;3168;51.684;6.954;2023-04-25T00:53:24;2.10;;;1.67;;
6269;SDS011;3168;51.684;6.954;2023-04-25T00:55:50;3.37;;;2.07;;
6269;SDS011;3168;51.684;6.954;2023-04-25T00:58:17;9.70;;;3.00;;
6269;SDS011;3168;51.684;6.954;2023-04-25T01:00:44;2.87;;;2.50;;
6269;SDS011;3168;51.684;6.954;2023-04-25T01:03:09;9.63;;;3.00;;
6269;SDS011;3168;51.684;6.954;2023-04-25T01:05:34;3.50;;;2.37;;
6269;SDS011;3168;51.684;6.954;2023-04-25T01:08:00;2.67;;;2.37;;
6269;SDS011;3168;51.684;6.954;2023-04-25T01:10:27;2.63;;;2.43;;
6269;SDS011;3168;51.684;6.954;2023-04-25T01:12:53;1.97;;;1.87;;
6269;SDS011;3168;51.684;6.954;2023-04-25T01:15:18;3.13;;;2.30;;
6269;SDS011;3168;51.684;6.954;2023-04-25T01:17:44;2.53;;;2.33;;
6269;SDS011;3168;51.684;6.954;2023-04-25T01:20:11;5.23;;;2.27;;
6269;SDS011;3168;51.684;6.954;2023-04-25T01:22:37;2.23;;;2.03;;
6269;SDS011;3168;51.684;6.954;2023-04-25T01:25:03;3.03;;;1.87;;
6269;SDS011;3168;51.684;6.954;2023-04-25T01:27:29;2.13;;;1.83;;
6269;SDS011;3168;51.684;6.954;2023-04-25T01:29:55;3.53;;;2.20;;
6269;SDS011;3168;51.684;6.954;2023-04-25T01:32:21;2.17;;;1.97;;
6269;SDS011;3168;51.684;6.954;2023-04-25T01:34:47;2.10;;;2.00;;
6269;SDS011;3168;51.684;6.954;2023-04-25T01:37:13;1.50;;;1.50;;
6269;SDS011;3168;51.684;6.954;2023-04-25T01:39:38;7.07;;;2.87;;
6269;SDS011;3168;51.684;6.954;2023-04-25T01:42:05;2.60;;;2.50;;
6269;SDS011;3168;51.684;6.954;2023-04-25T01:44:31;3.93;;;2.47;;
6269;SDS011;3168;51.684;6.954;2023-04-25T01:46:57;2.63;;;2.20;;
6269;SDS011;3168;51.684;6.954;2023-04-25T01:49:23;2.13;;;2.00;;
6269;SDS011;3168;51.684;6.954;2023-04-25T01:51:48;2.20;;;1.93;;
6269;SDS011;3168;51.684;6.954;2023-04-25T01:54:14;2.10;;;2.00;;
6269;SDS011;3168;51.684;6.954;2023-04-25T01:56:40;4.83;;;2.63;;
6269;SDS011;3168;51.684;6.954;2023-04-25T01:59:06;2.30;;;2.20;;
6269;SDS011;3168;51.684;6.954;2023-04-25T02:01:32;7.50;;;1.90;;
6269;SDS011;3168;51.684;6.954;2023-04-25T02:03:57;6.90;;;2.27;;
6269;SDS011;3168;51.684;6.954;2023-04-25T02:06:23;2.57;;;2.40;;
6269;SDS011;3168;51.684;6.954;2023-04-25T02:08:49;2.40;;;1.97;;
6269;SDS011;3168;51.684;6.954;2023-04-25T02:11:15;6.53;;;3.80;;
6269;SDS011;3168;51.684;6.954;2023-04-25T02:13:41;2.57;;;2.47;;
6269;SDS011;3168;51.684;6.954;2023-04-25T02:16:06;4.50;;;2.53;;
6269;SDS011;3168;51.684;6.954;2023-04-25T02:18:33;3.00;;;2.73;;
6269;SDS011;3168;51.684;6.954;2023-04-25T02:20:59;4.20;;;2.40;;
6269;SDS011;3168;51.684;6.954;2023-04-25T02:23:25;2.97;;;2.70;;
6269;SDS011;3168;51.684;6.954;2023-04-25T02:25:50;4.40;;;2.23;;
6269;SDS011;3168;51.684;6.954;2023-04-25T02:28:16;7.63;;;2.73;;
6269;SDS011;3168;51.684;6.954;2023-04-25T02:30:43;3.93;;;2.07;;
6269;SDS011;3168;51.684;6.954;2023-04-25T02:33:08;1.90;;;1.90;;
6269;SDS011;3168;51.684;6.954;2023-04-25T02:35:34;3.80;;;2.93;;
6269;SDS011;3168;51.684;6.954;2023-04-25T02:38:00;3.90;;;2.27;;
6269;SDS011;3168;51.684;6.954;2023-04-25T02:40:26;2.43;;;2.33;;
6269;SDS011;3168;51.684;6.954;2023-04-25T02:42:52;4.30;;;2.83;;
6269;SDS011;3168;51.684;6.954;2023-04-25T02:45:18;2.43;;;2.30;;
6269;SDS011;3168;51.684;6.954;2023-04-25T02:47:43;11.47;;;2.73;;
6269;SDS011;3168;51.684;6.954;2023-04-25T02:50:09;4.70;;;3.37;;
6269;SDS011;3168;51.684;6.954;2023-04-25T02:52:35;3.43;;;3.00;;
6269;SDS011;3168;51.684;6.954;2023-04-25T02:55:01;13.63;;;2.73;;
6269;SDS011;3168;51.684;6.954;2023-04-25T02:57:27;4.00;;;3.70;;
6269;SDS011;3168;51.684;6.954;2023-04-25T02:59:53;3.80;;;2.50;;
6269;SDS011;3168;51.684;6.954;2023-04-25T03:02:18;2.90;;;2.70;;
6269;SDS011;3168;51.684;6.954;2023-04-25T03:04:44;1.90;;;1.80;;
6269;SDS011;3168;51.684;6.954;2023-04-25T03:07:10;12.87;;;2.47;;
6269;SDS011;3168;51.684;6.954;2023-04-25T03:09:37;5.30;;;2.90;;
6269;SDS011;3168;51.684;6.954;2023-04-25T03:12:03;3.67;;;3.47;;
6269;SDS011;3168;51.684;6.954;2023-04-25T03:14:29;1.87;;;1.87;;
6269;SDS011;3168;51.684;6.954;2023-04-25T03:16:55;1.20;;;1.20;;
6269;SDS011;3168;51.684;6.954;2023-04-25T03:19:20;8.43;;;2.33;;
6269;SDS011;3168;51.684;6.954;2023-04-25T03:21:46;3.77;;;1.97;;
6269;SDS011;3168;51.684;6.954;2023-04-25T03:24:12;8.70;;;2.20;;
6269;SDS011;3168;51.684;6.954;2023-04-25T03:26:38;5.63;;;1.53;;
6269;SDS011;3168;51.684;6.954;2023-04-25T03:29:04;1.33;;;1.20;;
6269;SDS011;3168;51.684;6.954;2023-04-25T03:31:30;1.63;;;1.53;;
6269;SDS011;3168;51.684;6.954;2023-04-25T03:33:56;3.43;;;2.13;;
6269;SDS011;3168;51.684;6.954;2023-04-25T03:36:23;4.20;;;1.83;;
6269;SDS011;3168;51.684;6.954;2023-04-25T03:38:49;1.13;;;1.13;;
6269;SDS011;3168;51.684;6.954;2023-04-25T03:41:14;2.13;;;1.60;;
6269;SDS011;3168;51.684;6.954;2023-04-25T03:43:40;1.80;;;1.70;;
6269;SDS011;3168;51.684;6.954;2023-04-25T03:46:06;1.70;;;1.60;;
6269;SDS011;3168;51.684;6.954;2023-04-25T03:48:33;8.73;;;2.43;;
6269;SDS011;3168;51.684;6.954;2023-04-25T03:50:58;6.03;;;1.37;;
6269;SDS011;3168;51.684;6.954;2023-04-25T03:53:25;2.17;;;2.07;;
6269;SDS011;3168;51.684;6.954;2023-04-25T03:55:50;6.33;;;2.13;;
6269;SDS011;3168;51.684;6.954;2023-04-25T03:58:16;3.40;;;1.87;;
6269;SDS011;3168;51.684;6.954;2023-04-25T04:00:42;6.70;;;2.10;;
6269;SDS011;3168;51.684;6.954;2023-04-25T04:03:08;1.40;;;1.40;;
6269;SDS011;3168;51.684;6.954;2023-04-25T04:05:34;1.93;;;1.83;;
6269;SDS011;3168;51.684;6.954;2023-04-25T04:08:00;1.27;;;1.27;;
6269;SDS011;3168;51.684;6.954;2023-04-25T04:10:26;3.50;;;2.17;;
6269;SDS011;3168;51.684;6.954;2023-04-25T04:12:51;1.50;;;1.50;;
6269;SDS011;3168;51.684;6.954;2023-04-25T04:15:17;1.10;;;1.00;;
6269;SDS011;3168;51.684;6.954;2023-04-25T04:17:43;3.90;;;1.37;;
6269;SDS011;3168;51.684;6.954;2023-04-25T04:20:09;2.67;;;1.43;;
6269;SDS011;3168;51.684;6.954;2023-04-25T04:22:35;3.10;;;2.20;;
6269;SDS011;3168;51.684;6.954;2023-04-25T04:25:01;13.33;;;1.87;;
6269;SDS011;3168;51.684;6.954;2023-04-25T04:27:27;4.30;;;1.93;;
6269;SDS011;3168;51.684;6.954;2023-04-25T04:29:53;3.13;;;1.93;;
6269;SDS011;3168;51.684;6.954;2023-04-25T04:32:18;1.10;;;1.00;;
6269;SDS011;3168;51.684;6.954;2023-04-25T04:34:44;5.33;;;2.27;;
6269;SDS011;3168;51.684;6.954;2023-04-25T04:37:10;4.27;;;1.90;;
6269;SDS011;3168;51.684;6.954;2023-04-25T04:39:37;1.80;;;1.70;;
6269;SDS011;3168;51.684;6.954;2023-04-25T04:42:03;1.87;;;1.30;;
6269;SDS011;3168;51.684;6.954;2023-04-25T04:44:29;1.87;;;1.77;;
6269;SDS011;3168;51.684;6.954;2023-04-25T04:46:54;3.53;;;1.40;;
6269;SDS011;3168;51.684;6.954;2023-04-25T04:49:20;11.90;;;2.70;;
6269;SDS011;3168;51.684;6.954;2023-04-25T04:51:46;9.20;;;2.00;;
6269;SDS011;3168;51.684;6.954;2023-04-25T04:54:12;9.77;;;2.17;;
6269;SDS011;3168;51.684;6.954;2023-04-25T04:56:38;3.40;;;2.27;;
6269;SDS011;3168;51.684;6.954;2023-04-25T04:59:03;2.57;;;2.43;;
6269;SDS011;3168;51.684;6.954;2023-04-25T05:01:29;5.90;;;1.93;;
6269;SDS011;3168;51.684;6.954;2023-04-25T05:03:55;6.27;;;2.93;;
6269;SDS011;3168;51.684;6.954;2023-04-25T05:06:21;2.03;;;1.93;;
6269;SDS011;3168;51.684;6.954;2023-04-25T05:08:47;9.03;;;2.40;;
6269;SDS011;3168;51.684;6.954;2023-04-25T05:11:12;10.05;;;2.30;;
6269;SDS011;3168;51.684;6.954;2023-04-25T05:13:38;10.23;;;4.23;;
6269;SDS011;3168;51.684;6.954;2023-04-25T05:16:04;3.00;;;2.70;;
6269;SDS011;3168;51.684;6.954;2023-04-25T05:18:30;8.90;;;2.83;;
6269;SDS011;3168;51.684;6.954;2023-04-25T05:20:56;3.83;;;3.47;;
6269;SDS011;3168;51.684;6.954;2023-04-25T05:23:22;7.40;;;3.90;;
6269;SDS011;3168;51.684;6.954;2023-04-25T05:25:47;3.33;;;2.83;;
6269;SDS011;3168;51.684;6.954;2023-04-25T05:28:13;2.87;;;2.70;;
6269;SDS011;3168;51.684;6.954;2023-04-25T05:30:39;4.80;;;3.30;;
6269;SDS011;3168;51.684;6.954;2023-04-25T05:33:05;7.50;;;2.97;;
6269;SDS011;3168;51.684;6.954;2023-04-25T05:35:31;26.47;;;4.03;;
6269;SDS011;3168;51.684;6.954;2023-04-25T05:37:57;2.60;;;2.50;;
6269;SDS011;3168;51.684;6.954;2023-04-25T05:40:22;4.10;;;2.93;;
6269;SDS011;3168;51.684;6.954;2023-04-25T05:42:48;2.60;;;2.43;;
6269;SDS011;3168;51.684;6.954;2023-04-25T05:45:14;3.27;;;2.00;;
6269;SDS011;3168;51.684;6.954;2023-04-25T05:47:40;2.60;;;2.40;;
6269;SDS011;3168;51.684;6.954;2023-04-25T05:50:06;4.33;;;3.47;;
6269;SDS011;3168;51.684;6.954;2023-04-25T05:52:33;6.53;;;4.20;;
6269;SDS011;3168;51.684;6.954;2023-04-25T05:54:59;3.50;;;2.80;;
6269;SDS011;3168;51.684;6.954;2023-04-25T05:57:25;7.40;;;3.37;;
6269;SDS011;3168;51.684;6.954;2023-04-25T05:59:51;10.03;;;3.77;;
6269;SDS011;3168;51.684;6.954;2023-04-25T06:02:21;4.83;;;1.70;;
6269;SDS011;3168;51.684;6.954;2023-04-25T06:04:52;3.23;;;2.40;;
6269;SDS011;3168;51.684;6.954;2023-04-25T06:07:18;23.00;;;3.90;;
6269;SDS011;3168;51.684;6.954;2023-04-25T06:09:44;3.60;;;3.30;;
6269;SDS011;3168;51.684;6.954;2023-04-25T06:12:09;18.50;;;4.03;;
6269;SDS011;3168;51.684;6.954;2023-04-25T06:14:36;24.73;;;3.00;;
6269;SDS011;3168;51.684;6.954;2023-04-25T06:17:02;5.47;;;2.90;;
6269;SDS011;3168;51.684;6.954;2023-04-25T06:19:27;2.03;;;1.73;;
6269;SDS011;3168;51.684;6.954;2023-04-25T06:21:53;2.50;;;2.40;;
6269;SDS011;3168;51.684;6.954;2023-04-25T06:24:19;2.03;;;1.93;;
6269;SDS011;3168;51.684;6.954;2023-04-25T06:26:45;2.07;;;1.97;;
6269;SDS011;3168;51.684;6.954;2023-04-25T06:29:10;3.07;;;2.20;;
6269;SDS011;3168;51.684;6.954;2023-04-25T06:31:36;5.20;;;2.90;;
6269;SDS011;3168;51.684;6.954;2023-04-25T06:34:02;3.97;;;2.43;;
6269;SDS011;3168;51.684;6.954;2023-04-25T06:36:28;13.00;;;2.90;;
6269;SDS011;3168;51.684;6.954;2023-04-25T06:38:54;2.70;;;2.37;;
6269;SDS011;3168;51.684;6.954;2023-04-25T06:41:20;1.80;;;1.70;;
6269;SDS011;3168;51.684;6.954;2023-04-25T06:43:45;2.23;;;1.73;;
6269;SDS011;3168;51.684;6.954;2023-04-25T06:46:11;2.90;;;2.40;;
6269;SDS011;3168;51.684;6.954;2023-04-25T06:48:37;2.40;;;2.30;;
6269;SDS011;3168;51.684;6.954;2023-04-25T06:51:03;2.03;;;1.93;;
6269;SDS011;3168;51.684;6.954;2023-04-25T06:53:29;2.00;;;1.90;;
6269;SDS011;3168;51.684;6.954;2023-04-25T06:55:55;2.50;;;2.40;;
6269;SDS011;3168;51.684;6.954;2023-04-25T06:58:22;1.87;;;1.77;;
6269;SDS011;3168;51.684;6.954;2023-04-25T07:00:48;4.17;;;1.40;;
6269;SDS011;3168;51.684;6.954;2023-04-25T07:03:14;2.03;;;1.93;;
6269;SDS011;3168;51.684;6.954;2023-04-25T07:05:40;2.10;;;2.00;;
6269;SDS011;3168;51.684;6.954;2023-04-25T07:08:05;1.40;;;1.30;;
6269;SDS011;3168;51.684;6.954;2023-04-25T07:10:31;2.05;;;1.90;;
6269;SDS011;3168;51.684;6.954;2023-04-25T07:12:57;5.87;;;2.33;;
6269;SDS011;3168;51.684;6.954;2023-04-25T07:15:23;1.60;;;1.60;;
6269;SDS011;3168;51.684;6.954;2023-04-25T07:17:49;1.80;;;1.70;;
6269;SDS011;3168;51.684;6.954;2023-04-25T07:20:15;7.30;;;2.33;;
6269;SDS011;3168;51.684;6.954;2023-04-25T07:22:40;4.07;;;1.90;;
6269;SDS011;3168;51.684;6.954;2023-04-25T07:25:06;2.00;;;1.70;;
6269;SDS011;3168;51.684;6.954;2023-04-25T07:27:33;1.43;;;1.43;;
6269;SDS011;3168;51.684;6.954;2023-04-25T07:29:58;2.67;;;2.03;;
6269;SDS011;3168;51.684;6.954;2023-04-25T07:32:25;1.60;;;1.50;;
6269;SDS011;3168;51.684;6.954;2023-04-25T07:34:50;3.90;;;1.57;;
6269;SDS011;3168;51.684;6.954;2023-04-25T07:37:16;0.90;;;0.90;;
6269;SDS011;3168;51.684;6.954;2023-04-25T07:39:42;4.10;;;1.20;;
6269;SDS011;3168;51.684;6.954;2023-04-25T07:42:08;1.60;;;1.50;;
6269;SDS011;3168;51.684;6.954;2023-04-25T07:44:34;2.47;;;2.00;;
6269;SDS011;3168;51.684;6.954;2023-04-25T07:46:59;1.70;;;1.60;;
6269;SDS011;3168;51.684;6.954;2023-04-25T07:49:25;3.17;;;1.33;;
6269;SDS011;3168;51.684;6.954;2023-04-25T07:51:51;1.33;;;1.33;;
6269;SDS011;3168;51.684;6.954;2023-04-25T07:54:17;1.10;;;1.10;;
6269;SDS011;3168;51.684;6.954;2023-04-25T07:56:42;7.43;;;1.47;;
6269;SDS011;3168;51.684;6.954;2023-04-25T07:59:08;7.10;;;2.20;;
6269;SDS011;3168;51.684;6.954;2023-04-25T08:01:34;2.30;;;1.20;;
6269;SDS011;3168;51.684;6.954;2023-04-25T08:04:00;1.37;;;1.23;;
6269;SDS011;3168;51.684;6.954;2023-04-25T08:06:26;1.93;;;1.60;;
6269;SDS011;3168;51.684;6.954;2023-04-25T08:08:51;1.50;;;1.40;;
6269;SDS011;3168;51.684;6.954;2023-04-25T08:11:17;7.05;;;2.58;;
6269;SDS011;3168;51.684;6.954;2023-04-25T08:13:43;6.47;;;3.00;;
6269;SDS011;3168;51.684;6.954;2023-04-25T08:16:09;15.13;;;2.23;;
6269;SDS011;3168;51.684;6.954;2023-04-25T08:18:35;3.30;;;1.70;;
6269;SDS011;3168;51.684;6.954;2023-04-25T08:21:00;2.60;;;1.53;;
6269;SDS011;3168;51.684;6.954;2023-04-25T08:23:26;2.50;;;1.50;;
6269;SDS011;3168;51.684;6.954;2023-04-25T08:25:52;9.87;;;2.30;;
6269;SDS011;3168;51.684;6.954;2023-04-25T08:28:18;5.03;;;2.40;;
6269;SDS011;3168;51.684;6.954;2023-04-25T08:30:44;3.90;;;1.20;;
6269;SDS011;3168;51.684;6.954;2023-04-25T08:33:10;1.50;;;1.50;;
6269;SDS011;3168;51.684;6.954;2023-04-25T08:35:36;1.23;;;0.90;;
6269;SDS011;3168;51.684;6.954;2023-04-25T08:38:02;1.83;;;1.20;;
6269;SDS011;3168;51.684;6.954;2023-04-25T08:40:28;2.80;;;1.00;;
6269;SDS011;3168;51.684;6.954;2023-04-25T08:42:54;1.50;;;0.93;;
6269;SDS011;3168;51.684;6.954;2023-04-25T08:45:20;2.30;;;1.20;;
6269;SDS011;3168;51.684;6.954;2023-04-25T08:47:46;2.10;;;1.57;;
6269;SDS011;3168;51.684;6.954;2023-04-25T08:50:11;0.80;;;0.80;;
6269;SDS011;3168;51.684;6.954;2023-04-25T08:52:39;2.07;;;1.30;;
6269;SDS011;3168;51.684;6.954;2023-04-25T08:55:03;2.80;;;1.03;;
6269;SDS011;3168;51.684;6.954;2023-04-25T08:57:30;1.17;;;1.00;;
6269;SDS011;3168;51.684;6.954;2023-04-25T08:59:56;1.70;;;1.07;;
6269;SDS011;3168;51.684;6.954;2023-04-25T09:02:22;3.97;;;1.40;;
6269;SDS011;3168;51.684;6.954;2023-04-25T09:04:48;1.07;;;0.93;;
6269;SDS011;3168;51.684;6.954;2023-04-25T09:07:14;3.70;;;1.30;;
6269;SDS011;3168;51.684;6.954;2023-04-25T09:09:40;3.70;;;1.23;;
6269;SDS011;3168;51.684;6.954;2023-04-25T09:12:06;1.13;;;0.87;;
6269;SDS011;3168;51.684;6.954;2023-04-25T09:14:33;5.70;;;1.30;;
6269;SDS011;3168;51.684;6.954;2023-04-25T09:17:00;1.13;;;0.80;;
6269;SDS011;3168;51.684;6.954;2023-04-25T09:19:26;5.97;;;1.37;;
6269;SDS011;3168;51.684;6.954;2023-04-25T09:21:53;4.63;;;1.07;;
6269;SDS011;3168;51.684;6.954;2023-04-25T09:26:55;12.10;;;1.23;;
6269;SDS011;3168;51.684;6.954;2023-04-25T09:29:24;3.70;;;0.80;;
6269;SDS011;3168;51.684;6.954;2023-04-25T09:31:47;4.73;;;1.33;;
6269;SDS011;3168;51.684;6.954;2023-04-25T09:34:13;0.70;;;0.70;;
6269;SDS011;3168;51.684;6.954;2023-04-25T09:36:39;6.03;;;1.23;;
6269;SDS011;3168;51.684;6.954;2023-04-25T09:39:04;2.83;;;0.83;;
6269;SDS011;3168;51.684;6.954;2023-04-25T09:41:30;0.60;;;0.60;;
6269;SDS011;3168;51.684;6.954;2023-04-25T09:43:56;4.83;;;1.23;;
6269;SDS011;3168;51.684;6.954;2023-04-25T09:46:23;2.57;;;0.80;;
6269;SDS011;3168;51.684;6.954;2023-04-25T09:48:49;1.30;;;0.80;;
6269;SDS011;3168;51.684;6.954;2023-04-25T09:51:14;8.63;;;1.50;;
6269;SDS011;3168;51.684;6.954;2023-04-25T09:53:40;0.60;;;0.60;;
6269;SDS011;3168;51.684;6.954;2023-04-25T09:56:06;5.97;;;1.40;;
6269;SDS011;3168;51.684;6.954;2023-04-25T09:58:33;0.77;;;0.77;;
6269;SDS011;3168;51.684;6.954;2023-04-25T10:01:00;16.33;;;1.60;;
6269;SDS011;3168;51.684;6.954;2023-04-25T10:03:25;1.83;;;1.10;;
6269;SDS011;3168;51.684;6.954;2023-04-25T10:05:51;0.97;;;0.90;;
6269;SDS011;3168;51.684;6.954;2023-04-25T10:08:17;0.63;;;0.63;;
6269;SDS011;3168;51.684;6.954;2023-04-25T10:10:44;5.07;;;2.20;;
6269;SDS011;3168;51.684;6.954;2023-04-25T10:13:09;0.70;;;0.70;;
6269;SDS011;3168;51.684;6.954;2023-04-25T10:15:37;1.07;;;0.90;;
6269;SDS011;3168;51.684;6.954;2023-04-25T10:18:03;0.80;;;0.80;;
6269;SDS011;3168;51.684;6.954;2023-04-25T10:20:30;0.97;;;0.97;;
6269;SDS011;3168;51.684;6.954;2023-04-25T10:22:57;0.80;;;0.80;;
6269;SDS011;3168;51.684;6.954;2023-04-25T10:25:22;2.43;;;0.80;;
6269;SDS011;3168;51.684;6.954;2023-04-25T10:27:50;1.00;;;1.00;;
6269;SDS011;3168;51.684;6.954;2023-04-25T10:30:14;1.63;;;0.77;;
6269;SDS011;3168;51.684;6.954;2023-04-25T10:32:41;7.80;;;1.40;;
6269;SDS011;3168;51.684;6.954;2023-04-25T10:35:17;1.27;;;0.90;;
6269;SDS011;3168;51.684;6.954;2023-04-25T10:40:22;0.70;;;0.70;;
6269;SDS011;3168;51.684;6.954;2023-04-25T10:42:48;3.70;;;1.00;;
6269;SDS011;3168;51.684;6.954;2023-04-25T10:45:14;0.83;;;0.70;;
6269;SDS011;3168;51.684;6.954;2023-04-25T10:47:43;0.97;;;0.70;;
6269;SDS011;3168;51.684;6.954;2023-04-25T10:50:08;0.50;;;0.50;;
6269;SDS011;3168;51.684;6.954;2023-04-25T10:52:36;0.60;;;0.60;;
6269;SDS011;3168;51.684;6.954;2023-04-25T10:55:03;10.83;;;0.90;;
6269;SDS011;3168;51.684;6.954;2023-04-25T10:57:30;6.67;;;1.40;;
6269;SDS011;3168;51.684;6.954;2023-04-25T11:00:10;1.50;;;1.03;;
6269;SDS011;3168;51.684;6.954;2023-04-25T11:02:40;0.70;;;0.70;;
6269;SDS011;3168;51.684;6.954;2023-04-25T11:05:03;3.37;;;1.70;;
6269;SDS011;3168;51.684;6.954;2023-04-25T11:07:35;1.53;;;0.70;;
6269;SDS011;3168;51.684;6.954;2023-04-25T11:10:01;14.40;;;4.40;;
6269;SDS011;3168;51.684;6.954;2023-04-25T11:12:25;0.80;;;0.80;;
6269;SDS011;3168;51.684;6.954;2023-04-25T11:14:57;6.30;;;1.20;;
6269;SDS011;3168;51.684;6.954;2023-04-25T11:17:17;8.43;;;1.77;;
6269;SDS011;3168;51.684;6.954;2023-04-25T11:19:43;1.70;;;1.50;;
6269;SDS011;3168;51.684;6.954;2023-04-25T11:22:09;2.20;;;1.47;;
6269;SDS011;3168;51.684;6.954;2023-04-25T11:24:35;2.00;;;0.90;;
6269;SDS011;3168;51.684;6.954;2023-04-25T11:27:01;1.33;;;0.97;;
6269;SDS011;3168;51.684;6.954;2023-04-25T11:29:28;1.50;;;0.90;;
6269;SDS011;3168;51.684;6.954;2023-04-25T11:31:54;0.60;;;0.60;;
6269;SDS011;3168;51.684;6.954;2023-04-25T11:34:19;7.97;;;2.00;;
6269;SDS011;3168;51.684;6.954;2023-04-25T11:36:45;2.20;;;1.07;;
6269;SDS011;3168;51.684;6.954;2023-04-25T11:39:11;1.07;;;1.00;;
6269;SDS011;3168;51.684;6.954;2023-04-25T11:41:38;1.23;;;0.70;;
6269;SDS011;3168;51.684;6.954;2023-04-25T11:44:04;7.27;;;0.90;;
6269;SDS011;3168;51.684;6.954;2023-04-25T11:46:30;0.67;;;0.67;;
6269;SDS011;3168;51.684;6.954;2023-04-25T11:48:56;0.80;;;0.80;;
6269;SDS011;3168;51.684;6.954;2023-04-25T11:51:22;0.80;;;0.80;;
6269;SDS011;3168;51.684;6.954;2023-04-25T11:53:48;0.70;;;0.70;;
6269;SDS011;3168;51.684;6.954;2023-04-25T11:56:14;3.80;;;1.00;;
6269;SDS011;3168;51.684;6.954;2023-04-25T12:03:50;0.60;;;0.60;;
6269;SDS011;3168;51.684;6.954;2023-04-25T12:06:16;2.67;;;0.70;;
6269;SDS011;3168;51.684;6.954;2023-04-25T12:08:58;0.90;;;0.90;;
6269;SDS011;3168;51.684;6.954;2023-04-25T12:11:20;1.00;;;1.00;;
6269;SDS011;3168;51.684;6.954;2023-04-25T12:13:34;6.05;;;1.80;;
6269;SDS011;3168;51.684;6.954;2023-04-25T12:16:00;4.10;;;0.80;;
6269;SDS011;3168;51.684;6.954;2023-04-25T12:18:26;0.70;;;0.70;;
6269;SDS011;3168;51.684;6.954;2023-04-25T12:20:52;0.60;;;0.53;;
6269;SDS011;3168;51.684;6.954;2023-04-25T12:23:24;2.50;;;0.97;;
6269;SDS011;3168;51.684;6.954;2023-04-25T12:25:44;2.20;;;0.70;;
6269;SDS011;3168;51.684;6.954;2023-04-25T12:28:15;1.10;;;0.80;;
6269;SDS011;3168;51.684;6.954;2023-04-25T12:33:19;0.80;;;0.80;;
6269;SDS011;3168;51.684;6.954;2023-04-25T12:35:44;0.80;;;0.80;;
6269;SDS011;3168;51.684;6.954;2023-04-25T12:38:10;1.43;;;0.60;;
6269;SDS011;3168;51.684;6.954;2023-04-25T12:40:36;0.60;;;0.60;;
6269;SDS011;3168;51.684;6.954;2023-04-25T12:43:02;0.60;;;0.60;;
6269;SDS011;3168;51.684;6.954;2023-04-25T12:45:28;0.77;;;0.77;;
6269;SDS011;3168;51.684;6.954;2023-04-25T12:47:54;6.83;;;1.00;;
6269;SDS011;3168;51.684;6.954;2023-04-25T12:50:21;1.10;;;0.80;;
6269;SDS011;3168;51.684;6.954;2023-04-25T12:52:47;0.80;;;0.80;;
6269;SDS011;3168;51.684;6.954;2023-04-25T12:55:13;0.80;;;0.80;;
6269;SDS011;3168;51.684;6.954;2023-04-25T12:57:39;3.60;;;1.07;;
6269;SDS011;3168;51.684;6.954;2023-04-25T13:00:05;2.53;;;0.80;;
6269;SDS011;3168;51.684;6.954;2023-04-25T13:02:31;1.20;;;1.20;;
6269;SDS011;3168;51.684;6.954;2023-04-25T13:04:57;1.03;;;0.77;;
6269;SDS011;3168;51.684;6.954;2023-04-25T13:07:24;2.30;;;1.00;;
6269;SDS011;3168;51.684;6.954;2023-04-25T13:09:51;0.70;;;0.70;;
6269;SDS011;3168;51.684;6.954;2023-04-25T13:12:17;0.80;;;0.80;;
6269;SDS011;3168;51.684;6.954;2023-04-25T13:14:42;0.90;;;0.90;;
6269;SDS011;3168;51.684;6.954;2023-04-25T13:17:08;0.60;;;0.60;;
6269;SDS011;3168;51.684;6.954;2023-04-25T13:19:34;1.03;;;1.03;;
6269;SDS011;3168;51.684;6.954;2023-04-25T13:22:00;0.60;;;0.60;;
6269;SDS011;3168;51.684;6.954;2023-04-25T13:24:26;1.07;;;0.97;;
6269;SDS011;3168;51.684;6.954;2023-04-25T13:26:52;2.50;;;0.63;;
6269;SDS011;3168;51.684;6.954;2023-04-25T13:29:17;0.80;;;0.80;;
6269;SDS011;3168;51.684;6.954;2023-04-25T13:31:43;0.80;;;0.80;;
6269;SDS011;3168;51.684;6.954;2023-04-25T13:34:09;0.60;;;0.60;;
6269;SDS011;3168;51.684;6.954;2023-04-25T13:36:35;7.00;;;0.90;;
6269;SDS011;3168;51.684;6.954;2023-04-25T13:39:01;1.37;;;1.00;;
6269;SDS011;3168;51.684;6.954;2023-04-25T13:41:26;1.40;;;1.00;;
6269;SDS011;3168;51.684;6.954;2023-04-25T13:43:52;1.50;;;0.90;;
6269;SDS011;3168;51.684;6.954;2023-04-25T13:46:18;0.70;;;0.70;;
6269;SDS011;3168;51.684;6.954;2023-04-25T13:48:44;0.60;;;0.60;;
6269;SDS011;3168;51.684;6.954;2023-04-25T13:51:10;2.10;;;0.63;;
6269;SDS011;3168;51.684;6.954;2023-04-25T13:53:35;1.57;;;1.47;;
6269;SDS011;3168;51.684;6.954;2023-04-25T13:56:01;0.70;;;0.70;;
6269;SDS011;3168;51.684;6.954;2023-04-25T13:58:27;5.40;;;0.90;;
6269;SDS011;3168;51.684;6.954;2023-04-25T14:00:53;4.87;;;2.63;;
6269;SDS011;3168;51.684;6.954;2023-04-25T14:03:19;1.10;;;1.10;;
6269;SDS011;3168;51.684;6.954;2023-04-25T14:05:44;5.20;;;2.13;;
6269;SDS011;3168;51.684;6.954;2023-04-25T14:08:10;2.67;;;0.83;;
6269;SDS011;3168;51.684;6.954;2023-04-25T14:10:37;2.50;;;1.30;;
6269;SDS011;3168;51.684;6.954;2023-04-25T14:13:03;0.80;;;0.80;;
6269;SDS011;3168;51.684;6.954;2023-04-25T14:15:29;1.53;;;1.43;;
6269;SDS011;3168;51.684;6.954;2023-04-25T14:17:54;1.83;;;0.90;;
6269;SDS011;3168;51.684;6.954;2023-04-25T14:20:20;0.90;;;0.90;;
6269;SDS011;3168;51.684;6.954;2023-04-25T14:22:46;1.10;;;1.10;;
6269;SDS011;3168;51.684;6.954;2023-04-25T14:25:12;2.47;;;2.20;;
6269;SDS011;3168;51.684;6.954;2023-04-25T14:27:38;0.60;;;0.60;;
6269;SDS011;3168;51.684;6.954;2023-04-25T14:30:05;2.87;;;1.00;;
6269;SDS011;3168;51.684;6.954;2023-04-25T14:32:31;1.10;;;0.80;;
6269;SDS011;3168;51.684;6.954;2023-04-25T14:34:57;4.20;;;1.57;;
6269;SDS011;3168;51.684;6.954;2023-04-25T14:37:23;0.67;;;0.67;;
6269;SDS011;3168;51.684;6.954;2023-04-25T14:39:49;1.00;;;1.00;;
6269;SDS011;3168;51.684;6.954;2023-04-25T14:42:14;0.87;;;0.87;;
6269;SDS011;3168;51.684;6.954;2023-04-25T14:44:40;1.00;;;0.90;;
6269;SDS011;3168;51.684;6.954;2023-04-25T14:47:06;1.73;;;0.77;;
6269;SDS011;3168;51.684;6.954;2023-04-25T14:49:32;0.63;;;0.63;;
6269;SDS011;3168;51.684;6.954;2023-04-25T14:51:58;0.80;;;0.80;;
6269;SDS011;3168;51.684;6.954;2023-04-25T14:54:24;8.33;;;1.03;;
6269;SDS011;3168;51.684;6.954;2023-04-25T14:56:50;4.13;;;1.30;;
6269;SDS011;3168;51.684;6.954;2023-04-25T14:59:16;3.43;;;1.20;;
6269;SDS011;3168;51.684;6.954;2023-04-25T15:01:42;2.87;;;1.30;;
6269;SDS011;3168;51.684;6.954;2023-04-25T15:04:08;0.87;;;0.87;;
6269;SDS011;3168;51.684;6.954;2023-04-25T15:06:34;0.70;;;0.70;;
6269;SDS011;3168;51.684;6.954;2023-04-25T15:08:59;1.97;;;1.40;;
6269;SDS011;3168;51.684;6.954;2023-04-25T15:11:25;1.00;;;0.90;;
6269;SDS011;3168;51.684;6.954;2023-04-25T15:13:51;6.47;;;1.30;;
6269;SDS011;3168;51.684;6.954;2023-04-25T15:16:17;3.43;;;1.00;;
6269;SDS011;3168;51.684;6.954;2023-04-25T15:18:43;1.43;;;1.10;;
6269;SDS011;3168;51.684;6.954;2023-04-25T15:21:09;2.97;;;1.67;;